Time;durP1;ratioP1;P1;durP2;ratioP2;P2;SDS_P1;SDS_P2;PMS_P1;PMS_P2;Temp;Humidity;BMP_temperature;BMP_pressure;BME280_temperature;BME280_humidity;BME280_pressure;Samples;Min_cycle;Max_cycle;Signal;HPM_P1;HPM_P2
2023/01/02 00:00:31;;;;;;;23.30;11.90;;;;;;;;;;4987150;28;20117;-78
2023/01/02 00:02:57;;;;;;;22.92;11.60;;;;;;;;;;4969336;28;20293;-78
2023/01/02 00:05:23;;;;;;;25.63;11.70;;;;;;;;;;4987610;28;20038;-79
2023/01/02 00:07:49;;;;;;;25.30;11.48;;;;;;;;;;4987697;28;20037;-79
2023/01/02 00:10:16;;;;;;;30.35;11.57;;;;;;;;;;4987530;28;20030;-78
2023/01/02 00:12:42;;;;;;;28.20;12.38;;;;;;;;;;4986901;28;20076;-78
2023/01/02 00:15:08;;;;;;;24.83;12.45;;;;;;;;;;4987156;28;20031;-78
2023/01/02 00:17:34;;;;;;;26.23;11.57;;;;;;;;;;4986567;28;20072;-78
2023/01/02 00:20:00;;;;;;;24.67;12.45;;;;;;;;;;4987655;28;20026;-79
2023/01/02 00:22:27;;;;;;;28.17;12.73;;;;;;;;;;4987996;28;20045;-78
2023/01/02 00:24:53;;;;;;;32.63;13.65;;;;;;;;;;4986834;28;20034;-79
2023/01/02 00:27:20;;;;;;;29.42;14.07;;;;;;;;;;4987478;28;20097;-78
2023/01/02 00:29:46;;;;;;;32.47;12.70;;;;;;;;;;4969816;28;20045;-78
2023/01/02 00:32:12;;;;;;;29.92;12.57;;;;;;;;;;4988029;28;20026;-78
2023/01/02 00:34:38;;;;;;;28.05;13.00;;;;;;;;;;4986325;28;20037;-78
2023/01/02 00:37:04;;;;;;;33.05;13.73;;;;;;;;;;4987397;28;20034;-78
2023/01/02 00:39:30;;;;;;;28.70;13.90;;;;;;;;;;4970336;28;20035;-78
2023/01/02 00:41:57;;;;;;;27.42;13.70;;;;;;;;;;4986453;28;20038;-78
2023/01/02 00:44:23;;;;;;;26.60;12.75;;;;;;;;;;4986032;28;20038;-78
2023/01/02 00:46:49;;;;;;;32.42;13.68;;;;;;;;;;4985228;28;20225;-79
2023/01/02 00:49:15;;;;;;;22.13;12.07;;;;;;;;;;4985888;28;20026;-78
2023/01/02 00:51:41;;;;;;;34.63;13.35;;;;;;;;;;4983341;28;20082;-78
2023/01/02 00:54:07;;;;;;;21.45;13.60;;;;;;;;;;4987635;28;20018;-79
2023/01/02 00:56:33;;;;;;;24.00;12.45;;;;;;;;;;4986606;28;20121;-79
2023/01/02 00:59:00;;;;;;;25.17;13.13;;;;;;;;;;4983071;28;20034;-78
2023/01/02 01:01:26;;;;;;;25.83;12.27;;;;;;;;;;4986028;28;20030;-80
2023/01/02 01:03:52;;;;;;;25.13;11.77;;;;;;;;;;4983131;28;20034;-79
2023/01/02 01:06:20;;;;;;;27.83;12.20;;;;;;;;;;4985313;28;20042;-79
2023/01/02 01:08:46;;;;;;;22.52;11.75;;;;;;;;;;4985118;28;20084;-79
2023/01/02 01:11:14;;;;;;;24.42;11.60;;;;;;;;;;4987366;28;20495;-79
2023/01/02 01:13:43;;;;;;;28.25;11.13;;;;;;;;;;4986839;28;20038;-79
2023/01/02 01:16:11;;;;;;;22.67;10.57;;;;;;;;;;4986185;28;20400;-79
2023/01/02 01:18:37;;;;;;;29.42;12.30;;;;;;;;;;4986130;28;20058;-79
2023/01/02 01:21:15;;;;;;;19.45;11.57;;;;;;;;;;4983837;28;20065;-80
2023/01/02 01:23:41;;;;;;;24.33;11.38;;;;;;;;;;4984755;28;20022;-79
2023/01/02 01:26:09;;;;;;;28.50;12.95;;;;;;;;;;4983942;28;20026;-78
2023/01/02 01:28:35;;;;;;;22.55;12.60;;;;;;;;;;4985296;28;20049;-78
2023/01/02 01:31:05;;;;;;;18.55;12.55;;;;;;;;;;4985876;28;20034;-78
2023/01/02 01:33:32;;;;;;;25.63;12.98;;;;;;;;;;4984180;28;20495;-78
2023/01/02 01:36:05;;;;;;;29.42;13.25;;;;;;;;;;4984755;28;20058;-77
2023/01/02 01:38:32;;;;;;;26.23;14.23;;;;;;;;;;4987234;28;20025;-78
2023/01/02 01:40:58;;;;;;;27.30;12.23;;;;;;;;;;4983437;28;20023;-79
2023/01/02 01:43:43;;;;;;;26.08;13.32;;;;;;;;;;4984990;28;20758;-79
2023/01/02 01:46:26;;;;;;;27.63;13.60;;;;;;;;;;4996848;28;20026;-78
2023/01/02 01:49:12;;;;;;;26.55;13.13;;;;;;;;;;4986345;28;20039;-79
2023/01/02 01:51:42;;;;;;;25.40;12.90;;;;;;;;;;4984149;28;20109;-79
2023/01/02 01:54:09;;;;;;;30.08;12.63;;;;;;;;;;4967763;28;20033;-78
2023/01/02 01:56:38;;;;;;;22.90;12.27;;;;;;;;;;4968730;28;20038;-79
2023/01/02 01:59:04;;;;;;;28.15;11.93;;;;;;;;;;4986822;28;20499;-78
2023/01/02 02:01:31;;;;;;;31.98;13.15;;;;;;;;;;4971642;28;20031;-79
2023/01/02 02:03:57;;;;;;;24.98;12.73;;;;;;;;;;4987929;28;20084;-78
2023/01/02 02:06:23;;;;;;;24.25;12.68;;;;;;;;;;4990637;28;20046;-79
2023/01/02 02:08:57;;;;;;;27.92;13.43;;;;;;;;;;4989377;28;20113;-78
2023/01/02 02:11:23;;;;;;;29.42;12.20;;;;;;;;;;5001068;28;20093;-78
2023/01/02 02:13:50;;;;;;;28.92;12.80;;;;;;;;;;4998431;28;20026;-78
2023/01/02 02:16:16;;;;;;;25.23;13.60;;;;;;;;;;5002725;28;20017;-78
2023/01/02 02:18:42;;;;;;;24.15;12.27;;;;;;;;;;4984321;28;20033;-77
2023/01/02 02:21:08;;;;;;;31.77;14.43;;;;;;;;;;4989214;28;20026;-78
2023/01/02 02:23:40;;;;;;;30.40;14.05;;;;;;;;;;4990608;28;20037;-79
2023/01/02 02:26:09;;;;;;;27.55;14.00;;;;;;;;;;4993640;28;20022;-78
2023/01/02 02:28:35;;;;;;;31.55;15.20;;;;;;;;;;5007048;28;20454;-78
2023/01/02 02:31:02;;;;;;;33.78;15.18;;;;;;;;;;5007631;28;20378;-79
2023/01/02 02:33:37;;;;;;;32.15;15.60;;;;;;;;;;5004938;28;20125;-78
2023/01/02 02:36:12;;;;;;;27.52;13.73;;;;;;;;;;4990231;28;20030;-79
2023/01/02 02:38:58;;;;;;;31.25;13.25;;;;;;;;;;4995192;28;20015;-79
2023/01/02 02:41:35;;;;;;;26.23;15.00;;;;;;;;;;4987316;28;20037;-79
2023/01/02 02:44:01;;;;;;;31.55;14.88;;;;;;;;;;4990862;28;20041;-78
2023/01/02 02:46:50;;;;;;;32.92;14.05;;;;;;;;;;4988680;28;20026;-79
2023/01/02 02:49:31;;;;;;;32.20;15.50;;;;;;;;;;4988221;28;20038;-78
2023/01/02 02:52:04;;;;;;;32.17;14.57;;;;;;;;;;4987320;28;20054;-78
2023/01/02 02:54:33;;;;;;;30.48;15.93;;;;;;;;;;5000315;28;20113;-78
2023/01/02 02:56:59;;;;;;;30.70;15.20;;;;;;;;;;4988097;28;20022;-78
2023/01/02 02:59:26;;;;;;;29.40;15.65;;;;;;;;;;4989078;28;20034;-78
2023/01/02 03:01:52;;;;;;;30.23;14.68;;;;;;;;;;4986828;28;20478;-78
2023/01/02 03:04:19;;;;;;;34.05;15.55;;;;;;;;;;4988830;28;20387;-77
2023/01/02 03:06:45;;;;;;;31.35;15.82;;;;;;;;;;4988000;28;20093;-78
2023/01/02 03:09:27;;;;;;;31.45;16.83;;;;;;;;;;4972124;28;20045;-79
2023/01/02 03:11:54;;;;;;;32.25;16.50;;;;;;;;;;4987367;28;20038;-78
2023/01/02 03:14:28;;;;;;;32.03;15.70;;;;;;;;;;4988685;28;20031;-79
2023/01/02 03:17:00;;;;;;;37.75;16.92;;;;;;;;;;4986895;28;20026;-79
2023/01/02 03:19:30;;;;;;;31.88;16.40;;;;;;;;;;4989285;28;20026;-78
2023/01/02 03:22:05;;;;;;;24.70;14.70;;;;;;;;;;4986941;28;20049;-79
2023/01/02 03:24:33;;;;;;;30.00;14.05;;;;;;;;;;4988610;28;20022;-79
2023/01/02 03:27:02;;;;;;;28.85;14.90;;;;;;;;;;4986580;28;20042;-79
2023/01/02 03:29:32;;;;;;;31.27;14.75;;;;;;;;;;4989505;28;20034;-79
2023/01/02 03:32:00;;;;;;;36.10;14.88;;;;;;;;;;5002841;28;20036;-79
2023/01/02 03:34:29;;;;;;;35.90;14.73;;;;;;;;;;4988081;28;20391;-78
2023/01/02 03:36:57;;;;;;;28.42;13.77;;;;;;;;;;4989307;28;20022;-79
2023/01/02 03:39:26;;;;;;;24.65;14.00;;;;;;;;;;4986927;28;20041;-79
2023/01/02 03:41:55;;;;;;;30.73;13.15;;;;;;;;;;4988409;28;20034;-78
2023/01/02 03:44:23;;;;;;;23.92;13.02;;;;;;;;;;4988717;28;20564;-78
2023/01/02 03:46:52;;;;;;;30.95;14.52;;;;;;;;;;4988833;28;20043;-78
2023/01/02 03:49:24;;;;;;;29.70;13.35;;;;;;;;;;4988290;28;20022;-78
2023/01/02 03:51:51;;;;;;;33.80;14.30;;;;;;;;;;4988367;28;20053;-79
2023/01/02 03:54:17;;;;;;;31.00;12.82;;;;;;;;;;4987913;28;20443;-79
2023/01/02 03:56:50;;;;;;;23.38;13.15;;;;;;;;;;4987482;28;20030;-79
2023/01/02 03:59:22;;;;;;;24.70;11.98;;;;;;;;;;4987692;28;20026;-79
2023/01/02 04:01:51;;;;;;;22.55;12.30;;;;;;;;;;4989202;28;20030;-79
2023/01/02 04:04:24;;;;;;;24.80;11.95;;;;;;;;;;4984496;28;20117;-79
2023/01/02 04:06:55;;;;;;;23.45;11.27;;;;;;;;;;4989165;28;20042;-78
2023/01/02 04:09:23;;;;;;;22.98;10.98;;;;;;;;;;4988500;28;20030;-79
2023/01/02 04:11:54;;;;;;;27.77;11.40;;;;;;;;;;4988704;28;20112;-79
2023/01/02 04:14:24;;;;;;;24.40;10.93;;;;;;;;;;4984827;28;21507;-79
2023/01/02 04:16:52;;;;;;;21.50;10.77;;;;;;;;;;4986538;28;20026;-78
2023/01/02 04:19:22;;;;;;;21.67;10.20;;;;;;;;;;4988338;28;20037;-79
2023/01/02 04:21:50;;;;;;;22.30;9.73;;;;;;;;;;4988153;28;20034;-79
2023/01/02 04:24:18;;;;;;;26.13;11.20;;;;;;;;;;4987755;28;20045;-79
2023/01/02 04:26:47;;;;;;;21.90;10.02;;;;;;;;;;4986276;28;20089;-79
2023/01/02 04:29:13;;;;;;;19.70;9.15;;;;;;;;;;4981383;28;20040;-78
2023/01/02 04:31:39;;;;;;;28.30;10.52;;;;;;;;;;4984781;28;20033;-79
2023/01/02 04:34:09;;;;;;;23.73;10.23;;;;;;;;;;4985119;28;20027;-78
2023/01/02 04:36:39;;;;;;;31.30;10.52;;;;;;;;;;4987153;28;20281;-78
2023/01/02 04:39:06;;;;;;;;;;;;;;;;;;4982853;28;20034;-79
2023/01/02 04:41:33;;;;;;;25.95;9.30;;;;;;;;;;5001965;28;20239;-78
2023/01/02 04:43:59;;;;;;;24.13;10.07;;;;;;;;;;4987811;28;20109;-79
2023/01/02 04:46:27;;;;;;;20.30;10.10;;;;;;;;;;4968738;28;20073;-79
2023/01/02 04:48:53;;;;;;;26.33;10.65;;;;;;;;;;4988285;28;20145;-79
2023/01/02 04:51:20;;;;;;;18.60;11.18;;;;;;;;;;4985264;28;20070;-78
2023/01/02 04:53:50;;;;;;;17.25;11.13;;;;;;;;;;4986267;28;20180;-79
2023/01/02 04:56:16;;;;;;;22.90;11.50;;;;;;;;;;4986378;28;20019;-78
2023/01/02 04:58:43;;;;;;;22.20;11.60;;;;;;;;;;4986552;28;20038;-78
2023/01/02 05:01:09;;;;;;;22.00;11.60;;;;;;;;;;4986349;28;20133;-78
2023/01/02 05:03:42;;;;;;;20.00;11.60;;;;;;;;;;4986648;28;20030;-79
2023/01/02 05:06:09;;;;;;;24.73;11.27;;;;;;;;;;4986235;28;20501;-78
2023/01/02 05:08:36;;;;;;;26.83;11.65;;;;;;;;;;4986844;28;20080;-78
2023/01/02 05:11:06;;;;;;;21.77;10.90;;;;;;;;;;4986056;28;20109;-78
2023/01/02 05:13:32;;;;;;;21.40;11.13;;;;;;;;;;4987361;28;20105;-79
2023/01/02 05:15:58;;;;;;;19.83;11.30;;;;;;;;;;4988037;28;20050;-79
2023/01/02 05:18:24;;;;;;;21.13;11.57;;;;;;;;;;4986708;28;20053;-79
2023/01/02 05:20:51;;;;;;;26.33;13.07;;;;;;;;;;4981695;28;20086;-78
2023/01/02 05:26:16;;;;;;;17.73;11.75;;;;;;;;;;4963160;28;20057;-79
2023/01/02 05:28:42;;;;;;;10.25;6.50;;;;;;;;;;4951761;28;20488;-79
2023/01/02 05:31:08;;;;;;;7.88;5.85;;;;;;;;;;4971521;28;20018;-79
2023/01/02 05:33:35;;;;;;;8.93;6.47;;;;;;;;;;4988338;28;20034;-78
2023/01/02 05:36:04;;;;;;;8.82;6.60;;;;;;;;;;4972033;28;20451;-78
2023/01/02 05:38:31;;;;;;;9.27;7.28;;;;;;;;;;4989072;28;20066;-80
2023/01/02 05:41:04;;;;;;;9.93;7.93;;;;;;;;;;4988040;28;20029;-80
2023/01/02 05:43:31;;;;;;;11.02;7.95;;;;;;;;;;4987706;28;20050;-79
2023/01/02 05:45:57;;;;;;;12.75;8.48;;;;;;;;;;4986753;28;20078;-79
2023/01/02 05:48:24;;;;;;;11.45;8.13;;;;;;;;;;4988573;28;20121;-78
2023/01/02 05:50:50;;;;;;;13.00;8.25;;;;;;;;;;4968629;28;20034;-79
2023/01/02 05:53:17;;;;;;;12.35;8.52;;;;;;;;;;4985003;28;20055;-79
2023/01/02 05:55:43;;;;;;;10.82;7.55;;;;;;;;;;4987815;28;20057;-77
2023/01/02 05:58:09;;;;;;;9.98;6.35;;;;;;;;;;4986902;28;20054;-78
2023/01/02 06:00:35;;;;;;;9.18;6.75;;;;;;;;;;4969520;28;20116;-79
2023/01/02 06:03:01;;;;;;;12.55;8.43;;;;;;;;;;4986023;28;20030;-78
2023/01/02 06:05:28;;;;;;;13.38;9.40;;;;;;;;;;4987720;28;20069;-77
2023/01/02 06:07:54;;;;;;;16.77;9.45;;;;;;;;;;4987176;28;20045;-78
2023/01/02 06:10:20;;;;;;;15.77;10.40;;;;;;;;;;4985800;28;20077;-77
2023/01/02 06:12:46;;;;;;;16.42;10.43;;;;;;;;;;4984943;28;20031;-77
2023/01/02 06:15:12;;;;;;;18.27;9.95;;;;;;;;;;4970013;28;20050;-78
2023/01/02 06:17:38;;;;;;;15.90;8.93;;;;;;;;;;4984177;28;20027;-78
2023/01/02 06:20:05;;;;;;;15.40;9.75;;;;;;;;;;4986536;28;20031;-79
2023/01/02 06:22:31;;;;;;;14.32;9.40;;;;;;;;;;4970372;28;20060;-78
2023/01/02 06:24:57;;;;;;;15.80;9.48;;;;;;;;;;4969637;28;20053;-77
2023/01/02 06:27:23;;;;;;;17.50;9.88;;;;;;;;;;4986337;28;20034;-77
2023/01/02 06:29:49;;;;;;;18.67;11.07;;;;;;;;;;4984894;28;20069;-78
2023/01/02 06:32:16;;;;;;;19.88;10.15;;;;;;;;;;4985413;28;20030;-77
2023/01/02 06:34:42;;;;;;;22.02;10.15;;;;;;;;;;4984386;28;20029;-84
2023/01/02 06:37:08;;;;;;;19.55;10.23;;;;;;;;;;4984925;28;20164;-77
2023/01/02 06:39:34;;;;;;;21.65;9.73;;;;;;;;;;4998881;28;20042;-78
2023/01/02 06:42:00;;;;;;;22.88;8.65;;;;;;;;;;4966998;28;20109;-78
2023/01/02 06:44:26;;;;;;;16.80;8.07;;;;;;;;;;4986146;28;20036;-78
2023/01/02 06:46:53;;;;;;;22.02;8.55;;;;;;;;;;4985936;28;20110;-77
2023/01/02 06:49:19;;;;;;;19.73;6.78;;;;;;;;;;4978129;28;20069;-77
2023/01/02 06:51:46;;;;;;;21.38;7.22;;;;;;;;;;4988886;28;20132;-78
2023/01/02 06:54:12;;;;;;;16.95;5.40;;;;;;;;;;4988482;28;20022;-77
2023/01/02 06:56:38;;;;;;;16.05;5.47;;;;;;;;;;4988646;28;20050;-78
2023/01/02 06:59:04;;;;;;;18.20;5.65;;;;;;;;;;4972163;28;20136;-77
2023/01/02 07:01:31;;;;;;;17.20;5.93;;;;;;;;;;5004839;28;20034;-77
2023/01/02 07:03:57;;;;;;;15.10;6.15;;;;;;;;;;5008115;28;20031;-77
2023/01/02 07:06:26;;;;;;;11.18;4.82;;;;;;;;;;4989895;28;20038;-76
2023/01/02 07:08:52;;;;;;;15.23;5.40;;;;;;;;;;4987013;28;20026;-77
2023/01/02 07:11:20;;;;;;;11.13;5.38;;;;;;;;;;4986877;28;20109;-78
2023/01/02 07:13:47;;;;;;;16.15;5.75;;;;;;;;;;4987162;28;20041;-78
2023/01/02 07:16:15;;;;;;;19.77;6.80;;;;;;;;;;4991274;28;20030;-77
2023/01/02 07:18:41;;;;;;;17.98;6.82;;;;;;;;;;4989834;28;20049;-79
2023/01/02 07:21:08;;;;;;;18.35;6.30;;;;;;;;;;4999148;28;20088;-78
2023/01/02 07:23:35;;;;;;;14.85;6.13;;;;;;;;;;5004854;28;20045;-77
2023/01/02 07:26:02;;;;;;;16.70;5.72;;;;;;;;;;4995288;28;20045;-77
2023/01/02 07:28:29;;;;;;;15.80;5.65;;;;;;;;;;4984754;28;20030;-78
2023/01/02 07:30:59;;;;;;;18.45;5.95;;;;;;;;;;4986448;28;20364;-77
2023/01/02 07:33:25;;;;;;;24.15;4.95;;;;;;;;;;5004935;28;20434;-77
2023/01/02 07:35:51;;;;;;;21.05;5.63;;;;;;;;;;4989689;28;20480;-77
2023/01/02 07:38:18;;;;;;;18.75;4.88;;;;;;;;;;4996407;28;20022;-77
2023/01/02 07:40:44;;;;;;;12.45;4.72;;;;;;;;;;4992138;28;20137;-76
2023/01/02 07:43:10;;;;;;;18.05;5.40;;;;;;;;;;4992154;28;20029;-77
2023/01/02 07:45:36;;;;;;;23.55;6.47;;;;;;;;;;5003462;28;20030;-77
2023/01/02 07:48:02;;;;;;;23.55;6.65;;;;;;;;;;5003836;28;20061;-77
2023/01/02 07:50:29;;;;;;;21.88;6.38;;;;;;;;;;5010143;28;20045;-78
2023/01/02 07:52:55;;;;;;;17.20;5.43;;;;;;;;;;5005433;28;20127;-79
2023/01/02 07:55:22;;;;;;;25.33;6.32;;;;;;;;;;4993501;28;20510;-77
2023/01/02 07:57:48;;;;;;;15.80;5.68;;;;;;;;;;4994743;28;20084;-78
2023/01/02 08:00:15;;;;;;;25.38;6.03;;;;;;;;;;4990901;28;20035;-79
2023/01/02 08:02:41;;;;;;;18.40;5.60;;;;;;;;;;4992291;28;20096;-78
2023/01/02 08:05:10;;;;;;;20.17;6.13;;;;;;;;;;4986364;28;20049;-76
2023/01/02 08:07:37;;;;;;;24.50;6.45;;;;;;;;;;4983821;28;20320;-78
2023/01/02 08:10:03;;;;;;;18.00;5.90;;;;;;;;;;4980729;28;20649;-77
2023/01/02 08:12:29;;;;;;;20.83;5.80;;;;;;;;;;4985856;28;20050;-78
2023/01/02 08:14:55;;;;;;;23.85;6.90;;;;;;;;;;4989395;28;20027;-76
2023/01/02 08:17:21;;;;;;;13.90;5.18;;;;;;;;;;4986042;28;20035;-76
2023/01/02 08:19:48;;;;;;;17.35;5.18;;;;;;;;;;4981397;28;20038;-78
2023/01/02 08:22:15;;;;;;;18.50;5.07;;;;;;;;;;5000763;28;20061;-77
2023/01/02 08:24:42;;;;;;;11.18;4.18;;;;;;;;;;5000254;28;20074;-77
2023/01/02 08:27:11;;;;;;;13.48;5.18;;;;;;;;;;4981748;28;20079;-76
2023/01/02 08:29:37;;;;;;;16.95;5.47;;;;;;;;;;4989055;28;20060;-76
2023/01/02 08:32:03;;;;;;;17.50;5.82;;;;;;;;;;4972057;28;20026;-77
2023/01/02 08:34:29;;;;;;;16.23;5.35;;;;;;;;;;4994842;28;20101;-76
2023/01/02 08:36:55;;;;;;;16.02;4.80;;;;;;;;;;4983997;28;20042;-75
2023/01/02 08:39:22;;;;;;;13.52;5.95;;;;;;;;;;4985323;28;20253;-76
2023/01/02 08:41:48;;;;;;;17.35;7.35;;;;;;;;;;4983698;28;20506;-77
2023/01/02 08:44:15;;;;;;;21.17;5.97;;;;;;;;;;4980120;28;20120;-77
2023/01/02 08:46:42;;;;;;;18.88;6.75;;;;;;;;;;4985709;28;20166;-77
2023/01/02 08:49:08;;;;;;;19.05;6.75;;;;;;;;;;4969963;28;20065;-77
2023/01/02 08:51:35;;;;;;;20.67;7.53;;;;;;;;;;4970326;28;20071;-77
2023/01/02 08:54:01;;;;;;;17.60;7.38;;;;;;;;;;4965181;28;20041;-77
2023/01/02 08:56:29;;;;;;;19.98;7.15;;;;;;;;;;4982905;28;20475;-76
2023/01/02 08:58:57;;;;;;;21.90;7.80;;;;;;;;;;4988123;28;20033;-77
2023/01/02 09:01:23;;;;;;;15.23;6.72;;;;;;;;;;4980057;28;20220;-77
2023/01/02 09:03:50;;;;;;;17.15;7.00;;;;;;;;;;4989595;28;20030;-77
2023/01/02 09:06:17;;;;;;;14.88;6.30;;;;;;;;;;4988829;28;20085;-76
2023/01/02 09:08:43;;;;;;;16.60;6.32;;;;;;;;;;4981300;28;20046;-76
2023/01/02 09:11:10;;;;;;;15.40;6.32;;;;;;;;;;4982478;28;20038;-77
2023/01/02 09:13:36;;;;;;;20.85;7.40;;;;;;;;;;4981091;28;20062;-77
2023/01/02 09:16:02;;;;;;;17.60;7.35;;;;;;;;;;4985465;28;20037;-76
2023/01/02 09:18:29;;;;;;;17.10;7.75;;;;;;;;;;4971757;28;20395;-77
2023/01/02 09:20:55;;;;;;;19.92;8.05;;;;;;;;;;4987362;28;20102;-77
2023/01/02 09:23:21;;;;;;;18.38;8.82;;;;;;;;;;4971676;28;20036;-77
2023/01/02 09:25:50;;;;;;;17.40;7.72;;;;;;;;;;4985679;28;20125;-75
2023/01/02 09:28:16;;;;;;;18.08;7.15;;;;;;;;;;4988321;28;20041;-77
2023/01/02 09:30:42;;;;;;;18.67;7.28;;;;;;;;;;4988968;28;20034;-77
2023/01/02 09:33:08;;;;;;;15.35;5.82;;;;;;;;;;4989893;28;20138;-75
2023/01/02 09:35:34;;;;;;;14.35;4.63;;;;;;;;;;4983430;28;20033;-76
2023/01/02 09:38:01;;;;;;;16.02;4.28;;;;;;;;;;4979593;28;20085;-77
2023/01/02 09:40:29;;;;;;;12.27;3.92;;;;;;;;;;4972306;28;20119;-76
2023/01/02 09:42:55;;;;;;;15.70;4.00;;;;;;;;;;4998639;28;20040;-77
2023/01/02 09:45:21;;;;;;;13.52;3.85;;;;;;;;;;4986568;28;20029;-77
2023/01/02 09:47:48;;;;;;;12.23;3.20;;;;;;;;;;4988327;28;20080;-77
2023/01/02 09:50:17;;;;;;;12.13;4.53;;;;;;;;;;4987804;28;20558;-77
2023/01/02 09:52:45;;;;;;;15.75;3.72;;;;;;;;;;4990415;28;20137;-77
2023/01/02 09:55:22;;;;;;;15.30;3.47;;;;;;;;;;4989286;28;20124;-75
2023/01/02 09:57:51;;;;;;;11.40;3.55;;;;;;;;;;4987506;28;20026;-76
2023/01/02 10:00:17;;;;;;;11.43;4.38;;;;;;;;;;4990778;28;20358;-77
2023/01/02 10:02:50;;;;;;;14.27;4.45;;;;;;;;;;4986591;28;20026;-77
2023/01/02 10:05:35;;;;;;;12.27;4.45;;;;;;;;;;4987516;28;20023;-77
2023/01/02 10:08:10;;;;;;;11.32;4.85;;;;;;;;;;4989131;28;20073;-77
2023/01/02 10:10:41;;;;;;;12.23;4.25;;;;;;;;;;4989022;28;20134;-77
2023/01/02 10:13:10;;;;;;;14.93;4.22;;;;;;;;;;4985220;28;20029;-79
2023/01/02 10:15:37;;;;;;;11.95;3.97;;;;;;;;;;4987246;28;21347;-75
2023/01/02 10:18:24;;;;;;;11.98;4.03;;;;;;;;;;4989175;28;20034;-76
2023/01/02 10:20:55;;;;;;;10.15;3.90;;;;;;;;;;4986962;28;20042;-75
2023/01/02 10:23:21;;;;;;;;;;;;;;;;;;4981590;28;20026;-74
2023/01/02 10:25:52;;;;;;;17.38;3.42;;;;;;;;;;4986696;28;19909;-77
2023/01/02 10:28:27;;;;;;;12.35;2.38;;;;;;;;;;4986920;28;20026;-77
2023/01/02 10:30:55;;;;;;;12.95;2.55;;;;;;;;;;4992985;28;20038;-77
2023/01/02 10:33:24;;;;;;;13.32;3.65;;;;;;;;;;4991711;28;20057;-74
2023/01/02 10:35:53;;;;;;;12.38;2.55;;;;;;;;;;4992087;28;20037;-77
2023/01/02 10:38:20;;;;;;;10.23;1.98;;;;;;;;;;4991088;28;20033;-77
2023/01/02 10:40:47;;;;;;;12.55;2.10;;;;;;;;;;4991054;28;20118;-77
2023/01/02 10:43:14;;;;;;;9.52;2.40;;;;;;;;;;4987724;28;20038;-77
2023/01/02 10:45:40;;;;;;;10.85;3.40;;;;;;;;;;4985873;28;20038;-78
2023/01/02 10:48:09;;;;;;;9.60;1.88;;;;;;;;;;4987683;28;20089;-77
2023/01/02 10:50:41;;;;;;;11.20;2.58;;;;;;;;;;4991762;28;20084;-77
2023/01/02 10:53:08;;;;;;;14.88;2.97;;;;;;;;;;4985901;28;20186;-77
2023/01/02 10:55:39;;;;;;;11.10;2.95;;;;;;;;;;4990410;28;20089;-77
2023/01/02 10:58:07;;;;;;;9.98;3.60;;;;;;;;;;4993016;28;20042;-77
2023/01/02 11:00:36;;;;;;;8.98;2.58;;;;;;;;;;4989597;28;20032;-76
2023/01/02 11:03:11;;;;;;;11.45;2.90;;;;;;;;;;4990419;28;20034;-77
2023/01/02 11:05:44;;;;;;;14.32;3.25;;;;;;;;;;4987851;28;20492;-77
2023/01/02 11:08:12;;;;;;;16.05;3.67;;;;;;;;;;4974457;28;20027;-77
2023/01/02 11:10:38;;;;;;;16.00;3.08;;;;;;;;;;4990719;28;20074;-77
2023/01/02 11:13:09;;;;;;;15.13;3.50;;;;;;;;;;4989087;28;20404;-77
2023/01/02 11:15:36;;;;;;;13.70;2.80;;;;;;;;;;4991755;28;20022;-77
2023/01/02 11:18:10;;;;;;;20.20;4.07;;;;;;;;;;4990575;28;20105;-77
2023/01/02 11:20:37;;;;;;;16.20;3.03;;;;;;;;;;4991667;28;20034;-78
2023/01/02 11:23:04;;;;;;;8.20;2.60;;;;;;;;;;4985545;28;20046;-78
2023/01/02 11:25:38;;;;;;;13.45;3.67;;;;;;;;;;4990211;28;20519;-78
2023/01/02 11:28:05;;;;;;;12.05;2.85;;;;;;;;;;4985656;28;20065;-78
2023/01/02 11:30:43;;;;;;;9.27;2.65;;;;;;;;;;4990262;28;20041;-78
2023/01/02 11:33:27;;;;;;;8.73;2.40;;;;;;;;;;4969279;28;20387;-75
2023/01/02 11:35:53;;;;;;;11.88;2.65;;;;;;;;;;4986375;28;20042;-78
2023/01/02 11:38:20;;;;;;;8.88;3.25;;;;;;;;;;4973849;28;20092;-77
2023/01/02 11:40:57;;;;;;;11.35;3.42;;;;;;;;;;4988954;28;20026;-78
2023/01/02 11:46:19;;;;;;;8.88;2.20;;;;;;;;;;4989308;28;20030;-77
2023/01/02 11:48:46;;;;;;;8.95;2.67;;;;;;;;;;4992256;28;20144;-77
2023/01/02 11:51:16;;;;;;;9.30;2.10;;;;;;;;;;4984386;28;20690;-78
2023/01/02 11:53:46;;;;;;;17.23;2.80;;;;;;;;;;4998839;28;20030;-78
2023/01/02 11:56:17;;;;;;;6.85;1.90;;;;;;;;;;4989695;28;20031;-77
2023/01/02 11:58:43;;;;;;;28.75;3.55;;;;;;;;;;4993493;28;20062;-78
2023/01/02 12:01:09;;;;;;;12.75;3.60;;;;;;;;;;4991748;28;20034;-76
2023/01/02 12:03:35;;;;;;;14.63;2.78;;;;;;;;;;4996251;28;20121;-77
2023/01/02 12:06:14;;;;;;;8.63;2.15;;;;;;;;;;5000021;28;20034;-76
2023/01/02 12:08:59;;;;;;;13.48;2.55;;;;;;;;;;4997818;28;20022;-78
2023/01/02 12:11:25;;;;;;;14.63;2.83;;;;;;;;;;4998255;28;20121;-78
2023/01/02 12:13:52;;;;;;;15.35;2.53;;;;;;;;;;4987538;28;20101;-76
2023/01/02 12:16:27;;;;;;;12.98;2.38;;;;;;;;;;4987656;28;20041;-77
2023/01/02 12:18:59;;;;;;;18.50;3.00;;;;;;;;;;4994609;28;20125;-77
2023/01/02 12:21:29;;;;;;;13.07;3.20;;;;;;;;;;4997434;28;20198;-78
2023/01/02 12:24:12;;;;;;;9.95;2.40;;;;;;;;;;5004377;28;20014;-78
2023/01/02 12:26:42;;;;;;;15.65;3.35;;;;;;;;;;4997498;28;20042;-77
2023/01/02 12:29:29;;;;;;;14.18;3.20;;;;;;;;;;4972129;28;20026;-78
2023/01/02 12:32:07;;;;;;;9.77;2.88;;;;;;;;;;4977353;28;20034;-78
2023/01/02 12:34:42;;;;;;;13.60;2.70;;;;;;;;;;4991722;28;20026;-79
2023/01/02 12:37:15;;;;;;;14.15;3.88;;;;;;;;;;4988325;28;20049;-79
2023/01/02 12:39:48;;;;;;;11.32;3.65;;;;;;;;;;4993499;28;20391;-78
2023/01/02 12:42:18;;;;;;;19.00;3.88;;;;;;;;;;5000328;28;20026;-78
2023/01/02 12:44:44;;;;;;;13.68;3.10;;;;;;;;;;4985180;28;20033;-76
2023/01/02 12:47:19;;;;;;;16.52;3.20;;;;;;;;;;4996976;28;20070;-79
2023/01/02 12:49:54;;;;;;;19.45;3.20;;;;;;;;;;4982213;28;21312;-78
2023/01/02 12:52:39;;;;;;;24.58;4.72;;;;;;;;;;4984054;28;20583;-79
2023/01/02 12:55:14;;;;;;;15.60;4.13;;;;;;;;;;4993577;28;20453;-78
2023/01/02 12:58:01;;;;;;;17.63;3.60;;;;;;;;;;4995154;28;20030;-78
2023/01/02 13:00:55;;;;;;;19.23;3.53;;;;;;;;;;4992523;28;20029;-79
2023/01/02 13:03:33;;;;;;;20.27;4.20;;;;;;;;;;4996998;28;20042;-78
2023/01/02 13:06:04;;;;;;;18.98;4.30;;;;;;;;;;4990936;28;20030;-78
2023/01/02 13:08:49;;;;;;;21.55;4.57;;;;;;;;;;4994871;28;20407;-80
2023/01/02 13:11:20;;;;;;;18.42;5.15;;;;;;;;;;4999485;28;20440;-84
2023/01/02 13:13:46;;;;;;;18.58;5.40;;;;;;;;;;4980447;28;20117;-78
2023/01/02 13:16:15;;;;;;;16.02;6.35;;;;;;;;;;4983732;28;20048;-77
2023/01/02 13:18:54;;;;;;;16.20;6.93;;;;;;;;;;4982810;28;20108;-78
2023/01/02 13:21:52;;;;;;;23.15;7.65;;;;;;;;;;4979072;28;20146;-79
2023/01/02 13:24:22;;;;;;;21.80;7.60;;;;;;;;;;4949114;28;20089;-77
2023/01/02 13:26:48;;;;;;;24.00;8.13;;;;;;;;;;4986459;28;20124;-77
2023/01/02 13:29:15;;;;;;;17.98;6.57;;;;;;;;;;4986701;28;20041;-77
2023/01/02 13:31:46;;;;;;;18.05;5.82;;;;;;;;;;4982634;28;20030;-77
2023/01/02 13:34:27;;;;;;;16.25;6.40;;;;;;;;;;4990136;28;20092;-76
2023/01/02 13:37:05;;;;;;;16.73;6.28;;;;;;;;;;4988235;28;20030;-76
2023/01/02 13:39:34;;;;;;;10.05;4.78;;;;;;;;;;4984840;28;21455;-78
2023/01/02 13:44:49;;;;;;;19.38;6.13;;;;;;;;;;4989910;28;20061;-78
2023/01/02 13:47:17;;;;;;;17.27;6.25;;;;;;;;;;4990053;28;20027;-77
2023/01/02 13:49:43;;;;;;;17.02;7.05;;;;;;;;;;4988705;28;20120;-78
2023/01/02 13:52:18;;;;;;;21.17;6.43;;;;;;;;;;4985510;28;20046;-79
2023/01/02 13:55:03;;;;;;;17.23;6.82;;;;;;;;;;4988507;28;20030;-77
2023/01/02 13:57:32;;;;;;;15.00;6.63;;;;;;;;;;4990567;28;20050;-75
2023/01/02 13:59:59;;;;;;;19.35;8.45;;;;;;;;;;4989284;28;20098;-78
2023/01/02 14:02:26;;;;;;;18.98;9.20;;;;;;;;;;4980870;28;20136;-78
2023/01/02 14:04:53;;;;;;;22.05;10.52;;;;;;;;;;4991783;28;20034;-78
2023/01/02 14:07:25;;;;;;;24.15;10.10;;;;;;;;;;4994142;28;20043;-77
2023/01/02 14:10:09;;;;;;;24.60;11.25;;;;;;;;;;5009185;28;20062;-76
2023/01/02 14:12:45;;;;;;;24.35;12.32;;;;;;;;;;4994039;28;20046;-78
2023/01/02 14:15:19;;;;;;;25.45;13.98;;;;;;;;;;4988380;28;20049;-78
2023/01/02 14:17:52;;;;;;;25.52;13.05;;;;;;;;;;4989052;28;20038;-78
2023/01/02 14:20:21;;;;;;;27.55;13.35;;;;;;;;;;4992437;28;20027;-77
2023/01/02 14:22:55;;;;;;;26.88;12.75;;;;;;;;;;4993765;28;20105;-77
2023/01/02 14:25:22;;;;;;;23.05;13.48;;;;;;;;;;4993849;28;20219;-78
2023/01/02 14:27:53;;;;;;;25.23;11.75;;;;;;;;;;4993852;28;20088;-78
2023/01/02 14:30:24;;;;;;;22.55;11.23;;;;;;;;;;4991920;28;20042;-78
2023/01/02 14:32:52;;;;;;;18.20;9.00;;;;;;;;;;4992609;28;20058;-79
2023/01/02 14:35:18;;;;;;;21.92;8.85;;;;;;;;;;4975642;28;20129;-78
2023/01/02 14:37:48;;;;;;;15.60;8.32;;;;;;;;;;4991968;28;20026;-77
2023/01/02 14:40:35;;;;;;;21.38;7.47;;;;;;;;;;4990247;28;20117;-78
2023/01/02 14:45:57;;;;;;;15.47;7.53;;;;;;;;;;4974637;28;20061;-78
2023/01/02 14:48:31;;;;;;;20.35;7.50;;;;;;;;;;4965329;28;20110;-78